Chappells, South Carolina
Current Conditions -  °F | °C
As of 7:15 PM on Sunday 25 Jan 2015 (Local Time) from KEOE Reporting Station
Clear Clear  
Wind Chill: 46°   Ceiling: Unl
Heat Index: 46°   Visibility: 10mi
Dew Point: 32°   Wind: 3mph
Humidity: 57%   Direction: 180°S
Pressure: 29.83"   Gusts: NA
Location:  34.18°N, 81.87°W
Report Text: KEOE 260015Z AUTO 18003KT 10SM CLR 08/00 A2983 RMK AO2
Loading
Personal Weather Stations






























Interactive Weather Map New forecast layout! Learn more

10-Day Weather Forecast

Advertisements
Track Severe Weather on mobile